Flight Track Log - Related Links

Times and Time Zones

All times are in EDT time to prevent confusion due to time zone crossing. See the CSN3491 flight status page for this flight to view local times or setup timezone preferences in your user account.

Time Position Orientation Groundspeed Altitude Reporting Facility
EDT Latitude Longitude Course Direction KTS MPH feet Rate Location/Type
Tue 08:14:00 PM 34.4363 113.7286 228° Southwest  Level Estimated
Tue 08:15:00 PM 34.3527 113.6166 228° Southwest  Level Estimated
Tue 08:16:00 PM 34.2691 113.5048 228° Southwest  Level Estimated
Tue 08:17:00 PM 34.1854 113.3932 228° Southwest  Level Estimated
Tue 08:18:00 PM 34.1016 113.2819 228° Southwest  Level Estimated
Tue 08:19:00 PM 34.0177 113.1707 228° Southwest  Level Estimated
Tue 08:20:00 PM 33.9336 113.0598 228° Southwest  Level Estimated
Tue 08:21:00 PM 33.8495 112.9491 228° Southwest  Level Estimated
Tue 08:22:00 PM 33.7653 112.8386 227° Southwest  Level Estimated
Tue 08:23:00 PM 33.6810 112.7284 227° Southwest  Level Estimated
Tue 08:24:00 PM 33.5966 112.6183 227° Southwest  Level Estimated
Tue 08:25:00 PM 33.5121 112.5085 227° Southwest  Level Estimated
Tue 08:26:00 PM 33.4274 112.3989 227° Southwest  Level Estimated
Tue 08:27:00 PM 33.3428 112.2895 227° Southwest  Level Estimated
Tue 08:28:00 PM 33.2579 112.1803 227° Southwest  Level Estimated
Tue 08:29:00 PM 33.1731 112.0713 227° Southwest  Level Estimated
Tue 08:30:00 PM 33.0881 111.9625 227° Southwest  Level Estimated
Tue 08:31:00 PM 33.0030 111.8540 227° Southwest  Level Estimated
Tue 08:32:00 PM 32.9178 111.7456 227° Southwest  Level Estimated
Tue 08:33:00 PM 32.8325 111.6375 227° Southwest  Level Estimated
Tue 08:34:00 PM 32.7472 111.5295 227° Southwest  Level Estimated
Tue 08:35:00 PM 32.6617 111.4218 227° Southwest  Level Estimated
Tue 08:36:00 PM 32.5762 111.3143 227° Southwest  Level Estimated
Tue 08:37:00 PM 32.4905 111.2070 227° Southwest  Level Estimated
Tue 08:38:00 PM 32.4048 111.0999 227° Southwest  Level Estimated
Tue 08:39:00 PM 32.3190 110.9930 226° Southwest  Level Estimated
Tue 08:40:00 PM 32.2331 110.8862 226° Southwest  Level Estimated
Tue 08:41:00 PM 32.1471 110.7797 226° Southwest  Level Estimated
Tue 08:42:00 PM 32.0610 110.6734 226° Southwest  Level Estimated
Tue 08:43:00 PM 31.9748 110.5673 226° Southwest  Level Estimated
Tue 08:44:00 PM 31.8885 110.4614 226° Southwest  Level Estimated
Tue 08:45:00 PM 31.8022 110.3557 226° Southwest  Level Estimated
Tue 08:46:00 PM 31.7157 110.2502 226° Southwest  Level Estimated
Tue 08:47:00 PM 31.6292 110.1449 226° Southwest  Level Estimated
Tue 08:48:00 PM 31.5426 110.0398 226° Southwest  Level Estimated
Tue 08:49:00 PM 31.4559 109.9349 226° Southwest  Level Estimated
Tue 08:50:00 PM 31.3691 109.8301 226° Southwest  Level Estimated
Tue 08:51:00 PM 31.2822 109.7256 226° Southwest  Level Estimated
Tue 08:52:00 PM 31.1953 109.6213 226° Southwest  Level Estimated
Tue 08:53:00 PM 31.1083 109.5171 226° Southwest  Level Estimated
Tue 08:54:00 PM 31.0211 109.4132 226° Southwest  Level Estimated
Tue 08:55:00 PM 30.9339 109.3094 226° Southwest  Level Estimated
Tue 08:56:00 PM 30.8466 109.2058 226° Southwest  Level Estimated
Tue 08:57:00 PM 30.7593 109.1024 225° Southwest  Level Estimated
Tue 08:58:00 PM 30.6718 108.9992 225° Southwest  Level Estimated
Tue 08:59:00 PM 30.5843 108.8962 225° Southwest  Level Estimated
Tue 09:00:00 PM 30.4967 108.7934 225° Southwest  Level Estimated
Tue 09:01:00 PM 30.4090 108.6907 225° Southwest  Level Estimated
Tue 09:02:00 PM 30.3212 108.5883 225° Southwest  Level Estimated
Tue 09:03:00 PM 30.2334 108.4860 225° Southwest  Level Estimated
Tue 09:04:00 PM 30.1454 108.3839 225° Southwest  Level Estimated
Tue 09:05:00 PM 30.0574 108.2820 225° Southwest  Level Estimated
Tue 09:06:00 PM 29.9693 108.1803 225° Southwest  Level Estimated
Tue 09:07:00 PM 29.8812 108.0787 225° Southwest  Level Estimated
Tue 09:08:00 PM 29.7929 107.9773 225° Southwest  Level Estimated
Tue 09:09:00 PM 29.7046 107.8761 225° Southwest  Level Estimated
Tue 09:10:00 PM 29.6162 107.7751 225° Southwest  Level Estimated
Tue 09:11:00 PM 29.5277 107.6743 225° Southwest  Level Estimated
Tue 09:12:00 PM 29.4392 107.5736 225° Southwest  Level Estimated
Tue 09:13:00 PM 29.3505 107.4731 225° Southwest  Level Estimated
Tue 09:14:00 PM 29.2618 107.3728 225° Southwest  Level Estimated
Tue 09:15:00 PM 29.1730 107.2727 225° Southwest  Level Estimated
Tue 09:16:00 PM 29.0842 107.1727 225° Southwest  Level Estimated
Tue 09:17:00 PM 28.9953 107.0729 224° Southwest  Level Estimated
Tue 09:18:00 PM 28.9063 106.9733 224° Southwest  Level Estimated
Tue 09:19:00 PM 28.8172 106.8739 224° Southwest  Level Estimated
Tue 09:20:00 PM 28.7281 106.7746 224° Southwest  Level Estimated
Tue 09:21:00 PM 28.6388 106.6755 224° Southwest  Level Estimated
Tue 09:22:00 PM 28.5495 106.5765 224° Southwest  Level Estimated
Tue 09:23:00 PM 28.4602 106.4778 224° Southwest  Level Estimated
Tue 09:24:00 PM 28.3708 106.3792 224° Southwest  Level Estimated
Tue 09:25:00 PM 28.2812 106.2807 224° Southwest  Level Estimated
Tue 09:26:00 PM 28.1917 106.1824 224° Southwest  Level Estimated
Tue 09:27:00 PM 28.1020 106.0843 224° Southwest  Level Estimated
Tue 09:28:00 PM 28.0123 105.9864 224° Southwest  Level Estimated
Tue 09:29:00 PM 27.9225 105.8886 224° Southwest  Level Estimated
Tue 09:30:00 PM 27.8327 105.7910 224° Southwest  Level Estimated
Tue 09:31:00 PM 27.7428 105.6935 224° Southwest  Level Estimated
Tue 09:32:00 PM 27.6528 105.5962 224° Southwest  Level Estimated
Tue 09:33:00 PM 27.5627 105.4991 224° Southwest  Level Estimated
Tue 09:34:00 PM 27.4726 105.4021 224° Southwest  Level Estimated
Tue 09:35:00 PM 27.3824 105.3053 224° Southwest  Level Estimated
Tue 09:36:00 PM 27.2921 105.2086 224° Southwest  Level Estimated
Tue 09:37:00 PM 27.2018 105.1121 224° Southwest  Level Estimated
Tue 09:38:00 PM 27.1114 105.0157 224° Southwest  Level Estimated
Tue 09:39:00 PM 27.0210 104.9196 223° Southwest  Level Estimated
Tue 09:40:00 PM 26.9304 104.8235 223° Southwest  Level Estimated
Tue 09:41:00 PM 26.8398 104.7276 223° Southwest  Level Estimated
Tue 09:42:00 PM 26.7492 104.6319 223° Southwest  Level Estimated
Tue 09:43:00 PM 26.6696 104.5481 223° Southwest  Level Estimated
Tue 09:44:00 PM 26.5900 104.4643 223° Southwest  Level Estimated
Tue 09:45:00 PM 26.5104 104.3807 223° Southwest  Level Estimated
Tue 09:46:00 PM 26.4307 104.2972 223° Southwest  Level Estimated
Tue 09:47:00 PM 26.3509 104.2139 223° Southwest  Level Estimated
Tue 09:48:00 PM 26.2711 104.1306 223° Southwest  Level Estimated
Tue 09:49:00 PM 26.1912 104.0475 223° Southwest  Level Estimated
Tue 09:50:00 PM 26.1113 103.9644 223° Southwest  Level Estimated
Tue 09:51:00 PM 26.0314 103.8815 223° Southwest  Level Estimated
Tue 09:52:00 PM 25.9514 103.7987 223° Southwest  Level Estimated
Tue 09:53:00 PM 25.8714 103.7160 223° Southwest  Level Estimated
Tue 09:54:00 PM 25.7913 103.6335 223° Southwest  Level Estimated
Tue 09:55:00 PM 25.7111 103.5510 223° Southwest  Level Estimated
Tue 09:56:00 PM 25.6310 103.4686 223° Southwest  Level Estimated
Tue 09:57:00 PM 25.5507 103.3864 223° Southwest  Level Estimated
Tue 09:58:00 PM 25.4705 103.3043 223° Southwest  Level Estimated
Tue 09:59:00 PM 25.3902 103.2222 223° Southwest  Level Estimated
Tue 10:00:00 PM 25.3098 103.1403 223° Southwest  Level Estimated
Tue 10:01:00 PM 25.2294 103.0585 223° Southwest  Level Estimated
Tue 10:02:00 PM 25.1489 102.9768 223° Southwest  Level Estimated
Tue 10:03:00 PM 25.1019 102.9292 223° Southwest  Level Estimated
Tue 10:04:00 PM 25.1019 102.9292 326° Northwest  Level Estimated
Tue 10:05:00 PM 25.1019 102.9292 326° Northwest  Level Estimated
Tue 10:06:00 PM 25.1019 102.9292 326° Northwest  Level Estimated
Tue 10:07:00 PM 25.1019 102.9292 326° Northwest  Level Estimated
Tue 10:08:00 PM 25.1019 102.9292 326° Northwest  Level Estimated
Tue 10:09:00 PM 25.1019 102.9292 326° Northwest  Level Estimated
Tue 10:10:00 PM 25.1019 102.9292 326° Northwest  Level Estimated
Tue 10:11:00 PM 25.1019 102.9292 326° Northwest  Level Estimated
Tue 10:12:00 PM 25.1019 102.9292 326° Northwest  Level Estimated
Tue 10:13:00 PM 25.1019 102.9292 326° Northwest  Level Estimated
Tue 10:14:00 PM 25.1019 102.9292 326° Northwest  Level Estimated
Tue 10:15:00 PM 25.1019 102.9292 326° Northwest  Level Estimated
Tue 10:16:00 PM 25.1019 102.9292 326° Northwest  Level Estimated

Login

Don't have an account? Register now (free) for customized features, flight alerts, and more!